CheckWX is a tool to help pilots better visualize weather data.  It is not intended as a substitute for an official pre-flight weather briefing.

08:05:26 UTC

OJAQ TAF
Aqaba King Hussein International Airport
Aqaba, Jordan
TAF OJAQ 190450Z 1906/2012 36010KT CAVOK TEMPO 1911/1917 02016KT 5000 HZ NSC

Mar-19@
06:00 UTC

Mar-19 @ 06:00 UTC

Mar-20@
12:00 UTC

Mar-20 @ 12:00 UTC

TAF OJAQ 190450Z 1906/2012 36010KT CAVOK
Wind
  • 360° at 10 KTS
Conditions
No significant weather
Cloud Levels
  • No significant clouds

Mar-19@
11:00 UTC

Mar-19 @ 11:00 UTC

Mar-19@
17:00 UTC

Mar-19 @ 17:00 UTC

TEMPO 1911/1917 02016KT 5000 HZ NSC

Temporary

Temporary Changes expected for less than half the time period

Wind
  • 020° at 16 KTS
Conditions
Haze
Cloud Levels
  • No significant clouds